createdAt,value
2024-03-26T00:00:49.469Z,66.3603
2024-03-26T00:01:52.273Z,66.4067
2024-03-26T00:02:55.032Z,66.4900
2024-03-26T00:03:57.708Z,66.5387
2024-03-26T00:05:00.398Z,66.5659
2024-03-26T00:06:03.123Z,66.6063
2024-03-26T00:07:05.869Z,66.6367
2024-03-26T00:08:08.534Z,66.6611
2024-03-26T00:09:11.257Z,66.6964
2024-03-26T00:10:14.013Z,66.7703
2024-03-26T00:11:16.736Z,66.8305
2024-03-26T00:12:19.524Z,66.8537
2024-03-26T00:13:22.184Z,66.8538
2024-03-26T00:14:24.953Z,66.8585
2024-03-26T00:15:27.618Z,66.8816
2024-03-26T00:16:30.335Z,66.9012
2024-03-26T00:17:33.017Z,66.9298
2024-03-26T00:18:35.763Z,66.9538
2024-03-26T00:19:38.506Z,66.9870
2024-03-26T00:20:41.184Z,67.0081
2024-03-26T00:21:43.962Z,67.0748
2024-03-26T00:22:46.659Z,67.1114
2024-03-26T00:23:49.346Z,67.1574
2024-03-26T00:24:52.026Z,67.1787
2024-03-26T00:25:54.747Z,67.1761
2024-03-26T00:26:57.562Z,67.1852
2024-03-26T00:28:00.280Z,67.2193
2024-03-26T00:29:02.942Z,67.2270
2024-03-26T00:30:05.702Z,67.2363
2024-03-26T00:31:08.435Z,67.2533
2024-03-26T00:32:11.477Z,67.2682
2024-03-26T00:33:14.223Z,67.2524
2024-03-26T00:34:16.889Z,67.2330
2024-03-26T00:35:19.627Z,67.2899
2024-03-26T00:36:22.457Z,67.3967
2024-03-26T00:37:25.150Z,67.4799
2024-03-26T00:38:27.893Z,67.5158
2024-03-26T00:39:30.629Z,67.5303
2024-03-26T00:40:33.312Z,67.5380
2024-03-26T00:41:36.004Z,67.5433
2024-03-26T00:42:38.651Z,67.5706
2024-03-26T00:43:41.388Z,67.6232
2024-03-26T00:44:44.097Z,67.6910
2024-03-26T00:45:46.820Z,67.7331
2024-03-26T00:46:49.503Z,67.7495
2024-03-26T00:47:52.264Z,67.7628
2024-03-26T00:48:54.941Z,67.7691
2024-03-26T00:49:57.698Z,67.7555
2024-03-26T00:51:00.417Z,67.7467
2024-03-26T00:52:03.177Z,67.7771
2024-03-26T00:53:05.867Z,67.8463
2024-03-26T00:54:08.576Z,67.9047
2024-03-26T00:55:11.242Z,67.9298
2024-03-26T00:56:14.017Z,67.9468
2024-03-26T00:57:16.720Z,67.9738
2024-03-26T00:58:19.458Z,68.0194
2024-03-26T00:59:22.161Z,68.0586
2024-03-26T01:00:24.840Z,68.1216
2024-03-26T01:01:27.531Z,68.2090
2024-03-26T01:02:30.385Z,68.2722
2024-03-26T01:03:33.051Z,68.2753
2024-03-26T01:04:35.776Z,68.2550
2024-03-26T01:05:38.445Z,68.2229
2024-03-26T01:06:41.217Z,68.2198
2024-03-26T01:07:43.906Z,68.2257
2024-03-26T01:08:46.589Z,68.2295
2024-03-26T01:09:49.304Z,68.2624
2024-03-26T01:10:52.176Z,68.3207
2024-03-26T01:11:54.871Z,68.3636
2024-03-26T01:12:57.590Z,68.3935
2024-03-26T01:14:00.252Z,68.3790
2024-03-26T01:15:03.014Z,68.3618
2024-03-26T01:16:05.702Z,68.3781
2024-03-26T01:17:08.445Z,68.4169
2024-03-26T01:18:11.078Z,68.4683
2024-03-26T01:19:13.916Z,68.5251
2024-03-26T01:20:16.891Z,68.5649
2024-03-26T01:21:22.866Z,68.5778
2024-03-26T01:22:22.784Z,68.5934
2024-03-26T01:23:25.440Z,68.6040
2024-03-26T01:24:28.185Z,68.5900
2024-03-26T01:25:31.077Z,68.5841
2024-03-26T01:26:33.858Z,68.6117
2024-03-26T01:27:36.586Z,68.6487
2024-03-26T01:28:39.300Z,68.7146
2024-03-26T01:29:41.969Z,68.7662
2024-03-26T01:30:44.721Z,68.7905
2024-03-26T01:31:47.466Z,68.8179
2024-03-26T01:32:50.217Z,68.8306
2024-03-26T01:33:52.905Z,68.8299
2024-03-26T01:34:55.918Z,68.8107
2024-03-26T01:35:58.670Z,68.7916
2024-03-26T01:37:01.383Z,68.7842
2024-03-26T01:38:04.019Z,68.7706
2024-03-26T01:39:06.794Z,68.7692
2024-03-26T01:40:09.544Z,68.7678
2024-03-26T01:41:12.246Z,68.7683
2024-03-26T01:42:14.984Z,68.7925
2024-03-26T01:43:17.668Z,68.8150
2024-03-26T01:44:20.430Z,68.8370
2024-03-26T01:45:23.137Z,68.8592
2024-03-26T01:46:25.857Z,68.8846
2024-03-26T01:47:28.535Z,68.9037
2024-03-26T01:48:31.309Z,68.9286
2024-03-26T01:49:34.017Z,68.9571
2024-03-26T01:50:36.789Z,68.9767
2024-03-26T01:51:39.522Z,68.9830
2024-03-26T01:52:42.197Z,68.9947
2024-03-26T01:53:44.963Z,69.0075
2024-03-26T01:54:47.698Z,69.0151
2024-03-26T01:55:50.365Z,69.0033
2024-03-26T01:56:53.063Z,69.0013
2024-03-26T01:57:55.732Z,68.9976
2024-03-26T01:58:58.429Z,69.0006
2024-03-26T02:00:01.145Z,69.0015
2024-03-26T02:01:03.941Z,68.9967
2024-03-26T02:02:06.651Z,68.9837
2024-03-26T02:03:09.318Z,68.9688
2024-03-26T02:04:12.102Z,68.9532
2024-03-26T02:05:14.822Z,68.9629
2024-03-26T02:06:17.533Z,68.9905
2024-03-26T02:07:20.219Z,69.0306
2024-03-26T02:08:22.988Z,69.0653
2024-03-26T02:09:25.699Z,69.0704
2024-03-26T02:10:28.410Z,69.0888
2024-03-26T02:11:31.143Z,69.0996
2024-03-26T02:12:33.873Z,69.0857
2024-03-26T02:13:36.607Z,69.0958
2024-03-26T02:14:39.346Z,69.1428
2024-03-26T02:15:42.078Z,69.1988
2024-03-26T02:16:44.802Z,69.2283
2024-03-26T02:17:47.566Z,69.2669
2024-03-26T02:18:50.224Z,69.3091
2024-03-26T02:19:52.960Z,69.3267
2024-03-26T02:20:55.732Z,69.3604
2024-03-26T02:21:58.478Z,69.3809
2024-03-26T02:23:01.188Z,69.3769
2024-03-26T02:24:04.134Z,69.4102
2024-03-26T02:25:06.820Z,69.4409
2024-03-26T02:26:09.558Z,69.4388
2024-03-26T02:27:12.255Z,69.4302
2024-03-26T02:28:14.970Z,69.4586
2024-03-26T02:29:17.742Z,69.4947
2024-03-26T02:30:20.427Z,69.5205
2024-03-26T02:31:23.138Z,69.5434
2024-03-26T02:32:25.962Z,69.5264
2024-03-26T02:33:28.655Z,69.5114
2024-03-26T02:34:31.405Z,69.5150
2024-03-26T02:35:34.131Z,69.5218
2024-03-26T02:36:36.854Z,69.5872
2024-03-26T02:37:39.581Z,69.6306
2024-03-26T02:38:42.358Z,69.6374
2024-03-26T02:39:45.160Z,69.6335
2024-03-26T02:40:47.939Z,69.6173
2024-03-26T02:41:50.717Z,69.6378
2024-03-26T02:42:53.448Z,69.6556
2024-03-26T02:43:56.228Z,69.6629
2024-03-26T02:44:58.963Z,69.6775
2024-03-26T02:46:01.852Z,69.6900
2024-03-26T02:47:04.586Z,69.7132
2024-03-26T02:48:07.324Z,69.7293
2024-03-26T02:49:10.011Z,69.7418
2024-03-26T02:50:12.742Z,69.7731
2024-03-26T02:51:15.458Z,69.7994
2024-03-26T02:52:18.173Z,69.8442
2024-03-26T02:53:20.958Z,69.8711
2024-03-26T02:54:23.675Z,69.8907
2024-03-26T02:55:26.569Z,69.8909
2024-03-26T02:56:29.372Z,69.8908
2024-03-26T02:57:32.113Z,69.8970
2024-03-26T02:58:34.850Z,69.9257
2024-03-26T02:59:37.668Z,69.9422
2024-03-26T03:00:40.556Z,69.9490
2024-03-26T03:01:43.297Z,69.9558
2024-03-26T03:02:47.255Z,69.9454
2024-03-26T03:03:47.137Z,69.9096
2024-03-26T03:04:49.977Z,69.9023
2024-03-26T03:05:52.719Z,69.9087
2024-03-26T03:06:55.425Z,69.9241
2024-03-26T03:07:58.154Z,69.9506
2024-03-26T03:09:00.937Z,70.0039
2024-03-26T03:10:03.751Z,70.0663
2024-03-26T03:11:06.482Z,70.1270
2024-03-26T03:12:09.217Z,70.1908
2024-03-26T03:13:11.996Z,70.2605
2024-03-26T03:14:14.777Z,70.2831
2024-03-26T03:15:17.515Z,70.2921
2024-03-26T03:16:20.244Z,70.3593
2024-03-26T03:17:23.041Z,70.4189
2024-03-26T03:18:25.854Z,70.4367
2024-03-26T03:19:28.578Z,70.4480
2024-03-26T03:20:31.321Z,70.4558
2024-03-26T03:21:34.068Z,70.4789
2024-03-26T03:22:36.840Z,70.4899
2024-03-26T03:23:39.773Z,70.4991
2024-03-26T03:24:42.497Z,70.5133
2024-03-26T03:25:45.262Z,70.5489
2024-03-26T03:26:48.011Z,70.5819
2024-03-26T03:27:50.724Z,70.6183
2024-03-26T03:28:53.437Z,70.6465
2024-03-26T03:29:56.177Z,70.6525
2024-03-26T03:30:58.968Z,70.6528
2024-03-26T03:32:01.696Z,70.6394
2024-03-26T03:33:04.580Z,70.6175
2024-03-26T03:34:07.285Z,70.5877
2024-03-26T03:35:10.040Z,70.5523
2024-03-26T03:36:12.722Z,70.5140
2024-03-26T03:37:15.464Z,70.4806
2024-03-26T03:38:18.165Z,70.4669
2024-03-26T03:39:20.899Z,70.4593
2024-03-26T03:40:23.603Z,70.4665
2024-03-26T03:41:26.340Z,70.4807
2024-03-26T03:42:29.045Z,70.4940
2024-03-26T03:43:31.778Z,70.5025
2024-03-26T03:44:34.495Z,70.5025
2024-03-26T03:45:37.479Z,70.4743
2024-03-26T03:46:40.245Z,70.4512
2024-03-26T03:47:42.988Z,70.4422
2024-03-26T03:48:45.680Z,70.4333
2024-03-26T03:49:48.393Z,70.4072
2024-03-26T03:50:51.242Z,70.3733
2024-03-26T03:51:53.962Z,70.3433
2024-03-26T03:52:56.692Z,70.3545
2024-03-26T03:53:59.420Z,70.3579
2024-03-26T03:55:02.338Z,70.3288
2024-03-26T03:56:05.057Z,70.3202
2024-03-26T03:57:07.785Z,70.3025
2024-03-26T03:58:10.831Z,70.2545
2024-03-26T03:59:13.531Z,70.2065
2024-03-26T04:00:16.272Z,70.1631
2024-03-26T04:01:18.968Z,70.1277
2024-03-26T04:02:21.693Z,70.0914
2024-03-26T04:03:24.460Z,70.0760
2024-03-26T04:04:27.228Z,70.0573
2024-03-26T04:05:29.955Z,70.0564
2024-03-26T04:06:32.731Z,70.0680
2024-03-26T04:07:35.620Z,70.0704
2024-03-26T04:08:38.336Z,70.1061
2024-03-26T04:09:41.048Z,70.1658
2024-03-26T04:10:43.767Z,70.2113
2024-03-26T04:11:46.485Z,70.2517
2024-03-26T04:12:49.299Z,70.2804
2024-03-26T04:13:52.014Z,70.3040
2024-03-26T04:14:54.749Z,70.3164
2024-03-26T04:15:57.696Z,70.3161
2024-03-26T04:17:00.426Z,70.2979
2024-03-26T04:18:03.207Z,70.2918
2024-03-26T04:19:05.977Z,70.2989
2024-03-26T04:20:08.717Z,70.2915
2024-03-26T04:21:11.402Z,70.2629
2024-03-26T04:22:14.140Z,70.2488
2024-03-26T04:23:16.912Z,70.2298
2024-03-26T04:24:19.776Z,70.2156
2024-03-26T04:25:22.593Z,70.2039
2024-03-26T04:26:25.322Z,70.1800
2024-03-26T04:27:28.060Z,70.1601
2024-03-26T04:28:30.808Z,70.1497
2024-03-26T04:29:33.548Z,70.1121
2024-03-26T04:30:36.395Z,70.0684
2024-03-26T04:31:39.142Z,70.0308
2024-03-26T04:32:41.860Z,70.0168
2024-03-26T04:33:44.591Z,70.0282
2024-03-26T04:34:47.271Z,70.0480
2024-03-26T04:35:50.038Z,70.0492
2024-03-26T04:36:52.723Z,70.0809
2024-03-26T04:37:55.457Z,70.1071
2024-03-26T04:38:58.484Z,70.1176
2024-03-26T04:40:01.253Z,70.1195
2024-03-26T04:41:04.007Z,70.1260
2024-03-26T04:42:06.748Z,70.1437
2024-03-26T04:43:09.455Z,70.1718
2024-03-26T04:44:12.207Z,70.1811
2024-03-26T04:45:14.944Z,70.1687
2024-03-26T04:46:17.667Z,70.1819
2024-03-26T04:47:20.605Z,70.2204
2024-03-26T04:48:23.379Z,70.2626
2024-03-26T04:49:26.086Z,70.2955
2024-03-26T04:50:28.887Z,70.3303
2024-03-26T04:51:31.774Z,70.3493
2024-03-26T04:52:34.520Z,70.3505
2024-03-26T04:53:37.342Z,70.3500
2024-03-26T04:54:40.251Z,70.3570
2024-03-26T04:55:42.964Z,70.3658
2024-03-26T04:56:45.684Z,70.3828
2024-03-26T04:57:48.412Z,70.3996
2024-03-26T04:58:51.151Z,70.4088
2024-03-26T04:59:53.860Z,70.3982
2024-03-26T05:00:56.577Z,70.3696
2024-03-26T05:01:59.376Z,70.3513
2024-03-26T05:03:02.135Z,70.3764
2024-03-26T05:04:04.876Z,70.3834
2024-03-26T05:05:07.618Z,70.3729
2024-03-26T05:06:10.430Z,70.3736
2024-03-26T05:07:13.154Z,70.3681
2024-03-26T05:08:15.946Z,70.3373
2024-03-26T05:09:18.649Z,70.3481
2024-03-26T05:10:21.397Z,70.4004
2024-03-26T05:11:24.154Z,70.4484
2024-03-26T05:12:27.220Z,70.4726
2024-03-26T05:13:29.925Z,70.4829
2024-03-26T05:14:32.890Z,70.4771
2024-03-26T05:15:35.612Z,70.4668
2024-03-26T05:16:38.379Z,70.5236
2024-03-26T05:17:41.118Z,70.6022
2024-03-26T05:18:43.852Z,70.6518
2024-03-26T05:19:46.584Z,70.6766
2024-03-26T05:20:49.348Z,70.6855
2024-03-26T05:21:52.196Z,70.7105
2024-03-26T05:22:55.009Z,70.7414
2024-03-26T05:23:57.755Z,70.7560
2024-03-26T05:25:00.503Z,70.7757
2024-03-26T05:26:03.456Z,70.7939
2024-03-26T05:27:06.239Z,70.8316
2024-03-26T05:28:08.967Z,70.8346
2024-03-26T05:29:11.776Z,70.8255
2024-03-26T05:30:14.478Z,70.8011
2024-03-26T05:31:17.159Z,70.7995
2024-03-26T05:32:19.845Z,70.8202
2024-03-26T05:33:22.556Z,70.8494
2024-03-26T05:34:25.344Z,70.8753
2024-03-26T05:35:28.271Z,70.8940
2024-03-26T05:36:30.971Z,70.9021
2024-03-26T05:37:33.669Z,70.8801
2024-03-26T05:38:36.442Z,70.8471
2024-03-26T05:39:39.085Z,70.8427
2024-03-26T05:40:41.860Z,70.8669
2024-03-26T05:41:44.536Z,70.9059
2024-03-26T05:42:47.291Z,70.9321
2024-03-26T05:43:50.028Z,70.9248
2024-03-26T05:44:52.793Z,70.9175
2024-03-26T05:45:55.436Z,70.8940
2024-03-26T05:46:58.177Z,70.8732
2024-03-26T05:48:00.900Z,70.8733
2024-03-26T05:49:03.622Z,70.8731
2024-03-26T05:50:06.303Z,70.8884
2024-03-26T05:51:09.037Z,70.8977
2024-03-26T05:52:11.778Z,70.9122
2024-03-26T05:53:14.500Z,70.9341
2024-03-26T05:54:17.186Z,70.9461
2024-03-26T05:55:19.937Z,70.9627
2024-03-26T05:56:22.993Z,70.9715
2024-03-26T05:57:25.694Z,70.9815
2024-03-26T05:58:28.422Z,70.9601
2024-03-26T05:59:31.124Z,70.9565
2024-03-26T06:00:33.891Z,70.9770
2024-03-26T06:01:36.587Z,70.9796
2024-03-26T06:02:39.359Z,70.9836
2024-03-26T06:03:42.054Z,70.9849
2024-03-26T06:04:44.739Z,70.9870
2024-03-26T06:05:47.570Z,71.0081
2024-03-26T06:06:50.254Z,71.0247
2024-03-26T06:07:52.916Z,71.0243
2024-03-26T06:08:55.690Z,71.0018
2024-03-26T06:09:58.347Z,70.9907
2024-03-26T06:11:01.058Z,71.0156
2024-03-26T06:12:03.741Z,71.0690
2024-03-26T06:13:07.785Z,71.0913
2024-03-26T06:14:07.084Z,71.0942
2024-03-26T06:15:09.786Z,71.1001
2024-03-26T06:16:12.474Z,71.1151
2024-03-26T06:17:15.146Z,71.1492
2024-03-26T06:18:17.809Z,71.1590
2024-03-26T06:19:20.585Z,71.1455
2024-03-26T06:20:23.250Z,71.1766
2024-03-26T06:21:25.997Z,71.2509
2024-03-26T06:22:28.762Z,71.3363
2024-03-26T06:23:31.528Z,71.4357
2024-03-26T06:24:34.173Z,71.5234
2024-03-26T06:25:36.869Z,71.6102
2024-03-26T06:26:39.613Z,71.7247
2024-03-26T06:27:42.288Z,71.7997
2024-03-26T06:28:45.056Z,71.8719
2024-03-26T06:29:47.782Z,71.9823
2024-03-26T06:30:50.491Z,72.0684
2024-03-26T06:31:53.234Z,72.1009
2024-03-26T06:32:55.987Z,72.1246
2024-03-26T06:33:58.678Z,72.1127
2024-03-26T06:35:01.373Z,72.0968
2024-03-26T06:36:04.100Z,72.0742
2024-03-26T06:37:06.805Z,72.0416
2024-03-26T06:38:09.880Z,72.0206
2024-03-26T06:39:12.625Z,72.0317
2024-03-26T06:40:15.319Z,72.0004
2024-03-26T06:41:17.996Z,71.9446
2024-03-26T06:42:20.746Z,71.9154
2024-03-26T06:43:23.459Z,71.9157
2024-03-26T06:44:26.231Z,71.9425
2024-03-26T06:45:29.223Z,72.0701
2024-03-26T06:46:31.918Z,72.1970
2024-03-26T06:47:34.650Z,72.2671
2024-03-26T06:48:37.387Z,72.2542
2024-03-26T06:49:40.147Z,72.3176
2024-03-26T06:50:42.836Z,72.4227
2024-03-26T06:51:46.135Z,72.4507
2024-03-26T06:52:48.926Z,72.4239
2024-03-26T06:53:51.608Z,72.3681
2024-03-26T06:54:54.352Z,72.3227
2024-03-26T06:55:57.076Z,72.2254
2024-03-26T06:56:59.780Z,72.1099
2024-03-26T06:58:02.558Z,72.0316
2024-03-26T06:59:05.212Z,71.9682
2024-03-26T07:00:07.922Z,71.9193
2024-03-26T07:01:10.591Z,71.8586
2024-03-26T07:02:13.390Z,71.8055
2024-03-26T07:03:16.142Z,71.7519
2024-03-26T07:04:18.817Z,71.6670
2024-03-26T07:05:21.536Z,71.5286
2024-03-26T07:06:24.256Z,71.4128
2024-03-26T07:07:26.993Z,71.3345
2024-03-26T07:08:29.687Z,71.2758
2024-03-26T07:09:32.362Z,71.2098
2024-03-26T07:10:35.134Z,71.1471
2024-03-26T07:11:37.868Z,71.1153
2024-03-26T07:12:40.557Z,71.0549
2024-03-26T07:13:43.232Z,70.9924
2024-03-26T07:14:46.036Z,70.9073
2024-03-26T07:15:48.820Z,70.7559
2024-03-26T07:16:51.478Z,70.7123
2024-03-26T07:17:54.209Z,70.6754
2024-03-26T07:18:56.873Z,70.6298
2024-03-26T07:19:59.631Z,70.6228
2024-03-26T07:21:02.340Z,70.6200
2024-03-26T07:22:05.115Z,70.6012
2024-03-26T07:23:07.754Z,70.5874
2024-03-26T07:24:10.503Z,70.5688
2024-03-26T07:25:13.241Z,70.5654
2024-03-26T07:26:15.960Z,70.5814
2024-03-26T07:27:18.663Z,70.5354
2024-03-26T07:28:21.374Z,70.4947
2024-03-26T07:29:24.099Z,70.4916
2024-03-26T07:30:26.844Z,70.4825
2024-03-26T07:31:29.511Z,70.4645
2024-03-26T07:32:32.223Z,70.5104
2024-03-26T07:33:34.985Z,70.5697
2024-03-26T07:34:37.723Z,70.6210
2024-03-26T07:35:40.443Z,70.6539
2024-03-26T07:36:43.162Z,70.6534
2024-03-26T07:37:45.859Z,70.6526
2024-03-26T07:38:48.591Z,70.5948
2024-03-26T07:39:51.277Z,70.5341
2024-03-26T07:40:53.998Z,70.5664
2024-03-26T07:41:56.743Z,70.5533
2024-03-26T07:43:01.417Z,70.5023
2024-03-26T07:43:59.419Z,70.4131
2024-03-26T07:45:02.536Z,70.3188
2024-03-26T07:46:05.208Z,70.2947
2024-03-26T07:47:08.098Z,70.3058
2024-03-26T07:48:10.857Z,70.2413
2024-03-26T07:49:13.561Z,69.9455
2024-03-26T07:50:16.302Z,69.8248
2024-03-26T07:51:19.646Z,69.7069
2024-03-26T07:52:19.545Z,69.6345
2024-03-26T07:53:22.333Z,69.5488
2024-03-26T07:54:24.947Z,69.4309
2024-03-26T07:55:27.688Z,69.3164
2024-03-26T07:56:30.389Z,69.0300
2024-03-26T07:57:33.115Z,68.6997
2024-03-26T07:58:35.786Z,68.4183
2024-03-26T07:59:38.533Z,68.3753
2024-03-26T08:00:41.323Z,68.3522
2024-03-26T08:01:44.263Z,68.2408
2024-03-26T08:02:46.948Z,68.1610
2024-03-26T08:03:49.712Z,67.8755
2024-03-26T08:04:52.414Z,67.6571
2024-03-26T08:05:55.220Z,67.5938
2024-03-26T08:06:57.941Z,67.3736
2024-03-26T08:08:00.878Z,67.0677
2024-03-26T08:09:03.612Z,66.9227
2024-03-26T08:10:06.399Z,66.9217
2024-03-26T08:11:09.381Z,66.8728
2024-03-26T08:12:12.050Z,66.8601
2024-03-26T08:13:14.823Z,66.8355
2024-03-26T08:14:17.581Z,66.9386
2024-03-26T08:15:20.303Z,67.0471
2024-03-26T08:16:23.032Z,66.9819
2024-03-26T08:17:25.735Z,66.6548
2024-03-26T08:18:28.493Z,66.7850
2024-03-26T08:19:31.630Z,66.9419
2024-03-26T08:20:31.383Z,67.0256
2024-03-26T08:21:34.079Z,67.0752
2024-03-26T08:22:36.761Z,67.0565
2024-03-26T08:23:39.480Z,66.9585
2024-03-26T08:24:42.240Z,66.2445
2024-03-26T08:25:44.940Z,66.1180
2024-03-26T08:26:47.636Z,66.3191
2024-03-26T08:27:50.341Z,66.2734
2024-03-26T08:28:53.069Z,66.2645
2024-03-26T08:29:55.777Z,65.8586
2024-03-26T08:30:58.519Z,65.8984
2024-03-26T08:32:01.218Z,66.0933
2024-03-26T08:33:04.408Z,66.2418
2024-03-26T08:34:07.142Z,66.2858
2024-03-26T08:35:09.859Z,66.2255
2024-03-26T08:36:13.017Z,66.1783
2024-03-26T08:37:12.670Z,66.0954
2024-03-26T08:38:15.355Z,66.0203
2024-03-26T08:39:18.055Z,65.9600
2024-03-26T08:40:20.941Z,65.6970
2024-03-26T08:41:23.793Z,65.3862
2024-03-26T08:42:26.519Z,65.4688
2024-03-26T08:43:29.285Z,65.4613
2024-03-26T08:44:32.351Z,65.4353
2024-03-26T08:45:35.019Z,65.4023
2024-03-26T08:46:37.706Z,65.4389
2024-03-26T08:47:40.428Z,65.3638
2024-03-26T08:48:43.152Z,65.2041
2024-03-26T08:49:45.860Z,64.8445
2024-03-26T08:50:48.606Z,64.4474
2024-03-26T08:51:52.202Z,64.3735
2024-03-26T08:52:51.571Z,64.7211
2024-03-26T08:53:54.279Z,64.8158
2024-03-26T08:54:56.979Z,64.9952
2024-03-26T08:56:08.565Z,64.9191
2024-03-26T08:57:01.407Z,64.7895
2024-03-26T08:58:04.058Z,64.4303
2024-03-26T08:59:06.806Z,64.2356
2024-03-26T09:00:09.557Z,64.4682
2024-03-26T09:01:12.279Z,64.6993
2024-03-26T09:02:14.992Z,64.8133
2024-03-26T09:03:17.772Z,64.6486
2024-03-26T09:04:21.934Z,64.3412
2024-03-26T09:05:22.608Z,64.1351
2024-03-26T09:06:25.299Z,64.0614
2024-03-26T09:07:28.206Z,63.8749
2024-03-26T09:08:31.000Z,63.7312
2024-03-26T09:09:33.696Z,63.8382
2024-03-26T09:10:36.431Z,63.7814
2024-03-26T09:11:39.146Z,63.5357
2024-03-26T09:12:41.865Z,63.3508
2024-03-26T09:13:45.019Z,63.1630
2024-03-26T09:14:47.692Z,62.8543
2024-03-26T09:15:50.482Z,62.9402
2024-03-26T09:16:53.192Z,62.8125
2024-03-26T09:17:55.922Z,62.5413
2024-03-26T09:19:01.701Z,62.5069
2024-03-26T09:20:01.641Z,62.5435
2024-03-26T09:21:04.366Z,61.6009
2024-03-26T09:22:07.316Z,61.2242
2024-03-26T09:23:10.026Z,61.4717
2024-03-26T09:24:12.719Z,61.4943
2024-03-26T09:25:15.460Z,61.5315
2024-03-26T09:26:18.195Z,61.5648
2024-03-26T09:27:20.922Z,61.6658
2024-03-26T09:28:23.692Z,61.6695
2024-03-26T09:29:26.365Z,61.6389
2024-03-26T09:30:29.377Z,61.5196
2024-03-26T09:31:32.141Z,61.3648
2024-03-26T09:32:34.830Z,61.2396
2024-03-26T09:33:37.597Z,61.1439
2024-03-26T09:34:40.332Z,60.8696
2024-03-26T09:35:43.308Z,59.8354
2024-03-26T09:36:46.158Z,59.7057
2024-03-26T09:37:49.941Z,59.6087
2024-03-26T09:38:51.048Z,58.9779
2024-03-26T09:39:51.748Z,58.7189
2024-03-26T09:40:54.555Z,58.0330
2024-03-26T09:41:57.439Z,57.9277
2024-03-26T09:43:00.167Z,58.1083
2024-03-26T09:44:03.050Z,58.3143
2024-03-26T09:45:06.857Z,58.4245
2024-03-26T09:46:06.659Z,58.4035
2024-03-26T09:47:09.377Z,57.8970
2024-03-26T09:48:12.096Z,57.9576
2024-03-26T09:49:14.830Z,57.7152
2024-03-26T09:50:17.628Z,58.2887
2024-03-26T09:51:20.571Z,58.4881
2024-03-26T09:52:23.331Z,58.4950
2024-03-26T09:53:26.068Z,58.5077
2024-03-26T09:54:28.996Z,58.5592
2024-03-26T09:55:31.805Z,58.5764
2024-03-26T09:56:34.528Z,58.6043
2024-03-26T09:57:37.274Z,58.5426
2024-03-26T09:58:40.289Z,58.0521
2024-03-26T09:59:43.093Z,57.3700
2024-03-26T10:00:45.834Z,57.5925
2024-03-26T10:01:48.548Z,57.8659
2024-03-26T10:02:51.454Z,57.8516
2024-03-26T10:03:54.509Z,57.7952
2024-03-26T10:04:57.244Z,57.7356
2024-03-26T10:06:00.097Z,57.6376
2024-03-26T10:07:02.982Z,57.2302
2024-03-26T10:08:05.715Z,56.6944
2024-03-26T10:09:08.735Z,56.7965
2024-03-26T10:10:11.488Z,56.6123
2024-03-26T10:11:14.273Z,56.6572
2024-03-26T10:12:17.243Z,55.2428
2024-03-26T10:13:20.003Z,55.8457
2024-03-26T10:14:22.771Z,56.4072
2024-03-26T10:15:25.700Z,56.6025
2024-03-26T10:16:28.426Z,56.5906
2024-03-26T10:17:33.250Z,56.4842
2024-03-26T10:18:32.854Z,56.4490
2024-03-26T10:19:35.608Z,56.3766
2024-03-26T10:20:38.412Z,55.5356
2024-03-26T10:21:41.373Z,55.5621
2024-03-26T10:22:44.108Z,55.6942
2024-03-26T10:23:46.901Z,55.8481
2024-03-26T10:24:49.858Z,55.8876
2024-03-26T10:25:52.572Z,55.9031
2024-03-26T10:26:55.381Z,55.9056
2024-03-26T10:27:58.097Z,55.9915
2024-03-26T10:29:01.082Z,55.9902
2024-03-26T10:30:03.886Z,55.9471
2024-03-26T10:31:06.653Z,55.9658
2024-03-26T10:32:09.629Z,55.8182
2024-03-26T10:33:12.560Z,55.2606
2024-03-26T10:34:15.245Z,55.5221
2024-03-26T10:35:18.021Z,55.7579
2024-03-26T10:36:20.815Z,55.8636
2024-03-26T10:37:23.548Z,56.0125
2024-03-26T10:38:26.487Z,56.0092
2024-03-26T10:39:29.285Z,56.0627
2024-03-26T10:40:32.021Z,55.5335
2024-03-26T10:41:34.935Z,55.4444
2024-03-26T10:42:37.968Z,55.6661
2024-03-26T10:43:40.695Z,55.6293
2024-03-26T10:44:43.704Z,55.7931
2024-03-26T10:45:59.960Z,55.9284
2024-03-26T10:46:49.399Z,56.0941
2024-03-26T10:47:48.938Z,56.2232
2024-03-26T10:48:57.495Z,56.2946
2024-03-26T10:49:53.414Z,56.3816
2024-03-26T10:50:56.625Z,56.4499
2024-03-26T10:51:59.377Z,56.5135
2024-03-26T10:53:02.296Z,56.3050
2024-03-26T10:54:05.103Z,56.0123
2024-03-26T10:55:07.830Z,56.1475
2024-03-26T10:56:10.714Z,56.3165
2024-03-26T10:57:13.478Z,56.3695
2024-03-26T10:58:16.201Z,56.3398
2024-03-26T10:59:18.979Z,56.3123
2024-03-26T11:00:21.946Z,56.2545
2024-03-26T11:01:24.666Z,56.2481
2024-03-26T11:02:27.396Z,56.2937
2024-03-26T11:03:30.106Z,56.3043
2024-03-26T11:04:32.831Z,56.3531
2024-03-26T11:05:35.861Z,56.3968
2024-03-26T11:06:38.606Z,56.1965
2024-03-26T11:07:41.577Z,55.9217
2024-03-26T11:08:44.360Z,55.6821
2024-03-26T11:09:47.115Z,55.5635
2024-03-26T11:10:52.500Z,55.3904
2024-03-26T11:11:52.099Z,55.1401
2024-03-26T11:12:54.890Z,54.9877
2024-03-26T11:13:57.639Z,54.8165
2024-03-26T11:15:00.454Z,54.6809
2024-03-26T11:16:03.799Z,54.5436
2024-03-26T11:17:04.044Z,54.3521
2024-03-26T11:18:06.936Z,54.1585
2024-03-26T11:19:09.727Z,53.8991
2024-03-26T11:20:12.668Z,53.5546
2024-03-26T11:21:15.396Z,53.2779
2024-03-26T11:22:18.459Z,53.1774
2024-03-26T11:23:21.258Z,53.2108
2024-03-26T11:24:23.998Z,53.3302
2024-03-26T11:25:26.788Z,53.4388
2024-03-26T11:26:29.657Z,53.5304
2024-03-26T11:27:32.676Z,53.6174
2024-03-26T11:28:35.391Z,53.4228
2024-03-26T11:29:38.302Z,53.3479
2024-03-26T11:30:41.157Z,53.1849
2024-03-26T11:31:43.956Z,53.1488
2024-03-26T11:32:46.707Z,53.1922
2024-03-26T11:33:49.631Z,53.1126
2024-03-26T11:34:52.459Z,51.8464
2024-03-26T11:35:55.202Z,50.9333
2024-03-26T11:36:58.108Z,51.3668
2024-03-26T11:38:03.485Z,51.4756
2024-03-26T11:39:03.087Z,51.5737
2024-03-26T11:40:06.024Z,51.3502
2024-03-26T11:41:08.984Z,51.4283
2024-03-26T11:42:11.867Z,51.3158
2024-03-26T11:43:14.762Z,51.3736
2024-03-26T11:44:17.554Z,51.1916
2024-03-26T11:45:20.518Z,51.0102
2024-03-26T11:46:23.267Z,50.9701
2024-03-26T11:47:26.101Z,51.0724
2024-03-26T11:48:28.844Z,50.5384
2024-03-26T11:49:31.762Z,50.7471
2024-03-26T11:50:34.536Z,50.8266
2024-03-26T11:51:37.869Z,50.7000
2024-03-26T11:52:38.301Z,50.4415
2024-03-26T11:53:41.310Z,50.4763
2024-03-26T11:54:44.118Z,50.7134
2024-03-26T11:55:47.085Z,50.6602
2024-03-26T11:56:49.848Z,50.4732
2024-03-26T11:57:52.625Z,49.7135
2024-03-26T11:58:55.578Z,49.5172
2024-03-26T11:59:58.326Z,49.5867
2024-03-26T12:01:01.099Z,49.7847
2024-03-26T12:02:03.839Z,50.0756
2024-03-26T12:03:06.796Z,50.0752
2024-03-26T12:04:09.524Z,49.7092
2024-03-26T12:05:12.527Z,49.6697
2024-03-26T12:06:15.245Z,49.0303
2024-03-26T12:07:17.996Z,49.2540
2024-03-26T12:08:20.749Z,49.4344
2024-03-26T12:09:23.545Z,49.6787
2024-03-26T12:10:26.317Z,49.5629
2024-03-26T12:11:29.191Z,49.7606
2024-03-26T12:12:31.879Z,49.4038
2024-03-26T12:13:34.607Z,48.8160
2024-03-26T12:14:37.345Z,49.1736
2024-03-26T12:15:40.374Z,49.3381
2024-03-26T12:16:43.331Z,49.4460
2024-03-26T12:17:46.230Z,49.3055
2024-03-26T12:18:48.969Z,48.6844
2024-03-26T12:19:51.882Z,48.5987
2024-03-26T12:20:54.946Z,48.7329
2024-03-26T12:21:57.693Z,48.9027
2024-03-26T12:23:00.492Z,48.8072
2024-03-26T12:24:03.272Z,48.8308
2024-03-26T12:25:06.166Z,48.6805
2024-03-26T12:26:08.910Z,48.4923
2024-03-26T12:27:11.844Z,47.6233
2024-03-26T12:28:14.649Z,47.4907
2024-03-26T12:29:17.399Z,47.9172
2024-03-26T12:30:20.404Z,47.9655
2024-03-26T12:31:23.325Z,48.0541
2024-03-26T12:32:26.124Z,47.9391
2024-03-26T12:33:28.949Z,47.2367
2024-03-26T12:34:31.871Z,47.2905
2024-03-26T12:35:34.624Z,47.2420
2024-03-26T12:36:37.460Z,47.1125
2024-03-26T12:37:40.390Z,47.0852
2024-03-26T12:38:43.128Z,46.8993